• Join FlightAware (Why Join?)
  • Login
  • US Flag 
07:05AM EDT


 

Airport Tracker/Info


-or-


 

Live Flight TrackerFlight Track Log ✈ RPA4907 ✈ 01-Jul-2013 ✈ KALB - KIAD

Flight Track Log - Related Links

Times and Time Zones

All times are in EDT time to prevent confusion due to time zone crossing. See the RPA4907 flight status page for this flight to view local times or setup timezone preferences in your user account.

Time Position Orientation Groundspeed Altitude Reporting Facility
EDT Latitude Longitude Course Direction KTS MPH feet Rate Location/Type
10:16AM 42.7236 -73.8081 220° Southwest 176 203 900  Level Boston Center
10:17AM 42.6797 -73.8097 182° South 196 226 2,300 1,620 Climbing Boston Center
10:18AM 42.6328 -73.9075 237° Southwest 244 281 4,500 1,860 Climbing Boston Center
10:19AM 42.7334 -74.1657 270° West  Level FlightAware Approximate
10:19AM 42.6003 -73.9886 241° Southwest 249 287 6,600  Level Boston Center
10:20AM 42.7333 -74.2877 270° West  Level FlightAware Approximate
10:20AM 42.5703 -74.0611 241° Southwest 244 281 8,600  Level Boston Center
10:21AM 42.6775 -74.3775 220° Southwest  Level FlightAware Approximate
10:21AM 42.5314 -74.1447 238° Southwest 243 280 10,800  Level Boston Center
10:22AM 42.5033 -74.2144 241° Southwest 243 280 12,400 1,620 Climbing Boston Center
10:23AM 42.4664 -74.3006 240° Southwest 248 285 14,100 1,500 Climbing Boston Center
10:24AM 42.4361 -74.3672 238° Southwest 243 280 15,500 1,380 Climbing Boston Center
10:25AM 42.4014 -74.4506 241° Southwest 243 280 16,900 1,020 Climbing Boston Center
10:27AM 42.3361 -74.5972 239° Southwest 238 274 18,700 840 Climbing Boston Center
10:28AM 42.3078 -74.6664 241° Southwest 238 274 19,500 780 Climbing Boston Center
10:29AM 42.2750 -74.7439 240° Southwest 238 274 20,300 780 Climbing Boston Center
10:30AM 42.2444 -74.8100 238° Southwest 238 274 21,100 720 Climbing Boston Center
10:31AM 42.2136 -74.8872 242° Southwest 233 268 21,900 360 Climbing Boston Center
10:32AM 42.1719 -74.9808 239° Southwest 233 268 22,000  Climbing Boston Center
10:33AM 42.1450 -75.0667 247° West 247 284 22,000  Level Boston Center
10:35AM 42.0983 -75.2119 247° West 268 308 22,000  Level New York Center
10:36AM 42.0656 -75.3106 246° West 281 323 22,000  Level New York Center
10:37AM 42.0286 -75.4028 242° Southwest 291 335 22,000  Level New York Center
10:38AM 41.9894 -75.4978 241° Southwest 296 341 22,000 -240 Level New York Center
10:39AM 41.9483 -75.5922 240° Southwest 296 341 21,600 -600 Descending New York Center
10:40AM 41.9067 -75.6925 241° Southwest 296 341 20,900 -720 Descending New York Center
10:41AM 41.8547 -75.7889 234° Southwest 308 354 20,200 -720 Descending New York Center
10:42AM 41.8047 -75.8881 236° Southwest 319 367 19,500 -780 Descending New York Center
10:43AM 41.7458 -76.0003 235° Southwest 330 380 18,700 -780 Descending New York Center
10:44AM 41.6956 -76.0992 236° Southwest 330 380 18,000 -720 Descending New York Center
10:45AM 41.6411 -76.2003 234° Southwest 338 389 17,400 -600 Descending New York Center
10:46AM 41.5931 -76.2906 235° Southwest 338 389 16,900 -540 Descending New York Center
10:47AM 41.5425 -76.3892 236° Southwest 338 389 16,400 -480 Descending New York Center
10:48AM 41.4853 -76.4978 235° Southwest 338 389 16,000 -240 Descending New York Center
10:49AM 41.4328 -76.5931 234° Southwest 333 383 16,000  Level New York Center
10:50AM 41.3636 -76.6422 208° Southwest 307 353 16,000  Level New York Center
10:51AM 41.2742 -76.6814 198° South 313 360 16,000  Level New York Center
10:52AM 41.1914 -76.7156 197° South 318 366 16,000  Level New York Center
10:53AM 41.1106 -76.7497 198° South 312 359 16,000  Level New York Center
10:54AM 41.0294 -76.7839 198° South 312 359 16,000  Level New York Center
10:55AM 40.9506 -76.8181 198° South 312 359 16,000  Level New York Center
10:56AM 40.8803 -76.8503 199° South 312 359 16,000  Level New York Center
10:57AM 40.7908 -76.8861 197° South 312 359 16,000  Level New York Center
10:58AM 40.7147 -76.9094 193° South 312 359 16,000  Level New York Center
10:59AM 40.6256 -76.9372 193° South 307 353 16,000  Level New York Center
11:00AM 40.5514 -76.9606 193° South 307 353 16,000  Level New York Center
11:01AM 40.4603 -76.9906 194° South 307 353 16,000 -540 Level New York Center
11:03AM 40.3477 -77.0089 191° South  Level FlightAware Approximate
11:04AM 40.2000 -77.0667 191° South 310 357 14,000  Level Potomac TRACON
11:05AM 40.1167 -77.1000 197° South 303 349 13,000 -1,080 Descending Potomac TRACON
11:06AM 40.0333 -77.1167 189° South 293 337 12,000 -1,080 Descending Potomac TRACON
11:07AM 39.9667 -77.1333 191° South 262 302 10,900 -960 Descending Potomac TRACON
11:08AM 39.9000 -77.1167 169° South 250 288 10,000 -960 Descending Potomac TRACON
11:09AM 39.8333 -77.1000 169° South 269 310 9,000 -960 Descending Potomac TRACON
11:10AM 39.7667 -77.1667 218° Southwest 254 292 8,100 -960 Descending Potomac TRACON
11:11AM 39.7167 -77.2167 218° Southwest 248 285 7,100 -600 Descending Potomac TRACON
11:12AM 39.6833 -77.2833 237° Southwest 247 284 7,000 -180 Descending Potomac TRACON
11:13AM 39.6167 -77.3333 210° Southwest 241 277 6,800 -540 Descending Potomac TRACON
11:15AM 39.5052 -77.3493 186° South  Level FlightAware Approximate
11:15AM 39.5000 -77.4167 186° South 241 277 5,400  Level Potomac TRACON
11:16AM 39.4500 -77.4333 194° South 238 274 4,100 -720 Descending Potomac TRACON
11:17AM 39.3833 -77.4333 180° South 224 258 4,000 -120 Descending Potomac TRACON
11:18AM 39.3333 -77.4333 180° South 189 217 3,900 -480 Descending Potomac TRACON
11:19AM 39.2833 -77.4333 180° South 183 211 3,100 -480 Descending Potomac TRACON
11:20AM 39.2167 -77.4333 180° South 201 231 3,000 -60 Descending Potomac TRACON
11:21AM 39.1667 -77.4333 180° South 230 265 3,000  Level Potomac TRACON
11:22AM 39.1000 -77.4333 180° South 216 249 3,000  Level Potomac TRACON